Time;durP1;ratioP1;P1;durP2;ratioP2;P2;SDS_P1;SDS_P2;PMS_P1;PMS_P2;Temp;Humidity;BMP_temperature;BMP_pressure;BME280_temperature;BME280_humidity;BME280_pressure;Samples;Min_cycle;Max_cycle;Signal;HPM_P1;HPM_P2
2023/11/30 00:01:55;;;;;;;1999.90;999.90;;;0.90;22.70;;;;;;4993634;28;20177;-69
2023/11/30 00:04:21;;;;;;;1999.90;999.90;;;0.80;23.50;;;;;;4993537;28;20194;-69
2023/11/30 00:06:46;;;;;;;1999.90;999.90;;;0.90;24.70;;;;;;4993457;28;20308;-70
2023/11/30 00:09:12;;;;;;;1999.90;999.90;;;0.90;37.80;;;;;;4993475;28;20177;-69
2023/11/30 00:11:37;;;;;;;1999.90;999.90;;;1.00;51.60;;;;;;4993503;28;20253;-70
2023/11/30 00:14:03;;;;;;;1999.90;999.90;;;1.00;74.40;;;;;;4993288;28;20194;-69
2023/11/30 00:16:29;;;;;;;1999.90;999.90;;;1.00;59.40;;;;;;4993050;28;20205;-69
2023/11/30 00:18:55;;;;;;;1999.90;999.90;;;1.00;55.80;;;;;;4993410;28;20409;-70
2023/11/30 00:21:21;;;;;;;1999.90;999.90;;;1.00;44.60;;;;;;4993290;28;20596;-69
2023/11/30 00:23:47;;;;;;;1999.90;999.90;;;1.00;43.40;;;;;;4993152;28;20193;-69
2023/11/30 00:26:14;;;;;;;1999.90;999.90;;;1.00;35.60;;;;;;4993026;28;21034;-69
2023/11/30 00:28:40;;;;;;;1999.90;999.90;;;1.00;41.20;;;;;;4993132;28;20557;-69
2023/11/30 00:31:06;;;;;;;1999.90;999.90;;;1.00;35.80;;;;;;4993152;28;20184;-69
2023/11/30 00:33:31;;;;;;;1999.90;999.90;;;1.10;70.20;;;;;;4993046;28;20779;-69
2023/11/30 00:35:57;;;;;;;1999.90;999.90;;;0.90;12.30;;;;;;4992795;28;20225;-70
2023/11/30 00:38:23;;;;;;;1999.90;999.90;;;1.00;9.00;;;;;;4993006;28;20201;-69
2023/11/30 00:40:48;;;;;;;1999.90;999.90;;;0.90;1.00;;;;;;4993243;28;20169;-70
2023/11/30 00:43:14;;;;;;;1999.90;999.90;;;0.90;5.10;;;;;;4993125;28;20540;-69
2023/11/30 00:45:39;;;;;;;1999.90;999.90;;;0.90;1.00;;;;;;4992881;28;20200;-69
2023/11/30 00:48:05;;;;;;;1999.90;999.90;;;0.80;1.00;;;;;;4992768;28;20254;-69
2023/11/30 00:50:31;;;;;;;1999.90;999.90;;;0.80;12.50;;;;;;4992926;28;20680;-69
2023/11/30 00:52:56;;;;;;;1999.90;999.90;;;0.90;16.30;;;;;;4992610;28;20817;-69
2023/11/30 00:55:22;;;;;;;1999.90;999.90;;;0.90;23.60;;;;;;4992574;28;20576;-69
2023/11/30 00:57:47;;;;;;;1999.90;999.90;;;0.90;29.00;;;;;;4992507;28;20225;-69
2023/11/30 01:00:13;;;;;;;1999.90;999.90;;;1.00;37.70;;;;;;4992764;28;20187;-69
2023/11/30 01:02:40;;;;;;;1999.90;999.90;;;1.00;29.30;;;;;;4992644;28;20184;-69
2023/11/30 01:05:06;;;;;;;1999.90;999.90;;;1.00;27.10;;;;;;4992662;28;20421;-69
2023/11/30 01:07:32;;;;;;;1999.90;999.90;;;1.00;40.20;;;;;;4992558;28;20194;-69
2023/11/30 01:09:59;;;;;;;1999.90;999.90;;;1.10;40.10;;;;;;4992652;28;20177;-70
2023/11/30 01:12:26;;;;;;;1999.90;999.90;;;1.10;42.00;;;;;;4992475;28;20674;-69
2023/11/30 01:14:52;;;;;;;1999.90;999.90;;;1.10;65.10;;;;;;4992473;28;20192;-69
2023/11/30 01:17:18;;;;;;;1999.90;999.90;;;1.00;55.20;;;;;;4992218;28;20208;-69
2023/11/30 01:19:43;;;;;;;1999.90;999.90;;;1.00;66.70;;;;;;4992564;28;20630;-70
2023/11/30 01:22:09;;;;;;;1999.90;999.90;;;1.00;98.40;;;;;;4992554;28;20178;-70
2023/11/30 01:24:35;;;;;;;1999.90;999.90;;;1.10;99.90;;;;;;4992419;28;20252;-69
2023/11/30 01:27:01;;;;;;;1999.90;999.90;;;1.10;99.90;;;;;;4992249;28;20756;-69
2023/11/30 01:29:26;;;;;;;1999.90;999.90;;;1.10;99.90;;;;;;4992433;28;20177;-70
2023/11/30 01:31:52;;;;;;;1999.90;999.90;;;1.20;99.90;;;;;;4992370;28;20194;-70
2023/11/30 01:34:17;;;;;;;1999.90;999.90;;;1.20;99.90;;;;;;4992383;28;20189;-69
2023/11/30 01:36:43;;;;;;;1999.90;999.90;;;1.30;99.90;;;;;;4992217;28;20208;-69
2023/11/30 01:39:09;;;;;;;1999.90;999.90;;;1.20;95.60;;;;;;4992236;28;20471;-69
2023/11/30 01:41:36;;;;;;;1999.90;999.90;;;1.20;96.10;;;;;;4992284;28;20204;-70
2023/11/30 01:44:02;;;;;;;1999.90;999.90;;;1.20;90.10;;;;;;4992129;28;20197;-69
2023/11/30 01:46:29;;;;;;;1999.90;999.90;;;1.20;84.70;;;;;;4992163;28;20182;-69
2023/11/30 01:48:55;;;;;;;1999.90;999.90;;;1.20;76.00;;;;;;4992304;28;20611;-69
2023/11/30 01:51:21;;;;;;;1999.90;999.90;;;1.20;68.50;;;;;;4992163;28;20192;-69
2023/11/30 01:53:47;;;;;;;1999.90;999.90;;;1.20;90.30;;;;;;4992012;28;20240;-70
2023/11/30 01:56:14;;;;;;;1999.90;999.90;;;1.20;87.50;;;;;;4991881;28;20685;-69
2023/11/30 01:58:41;;;;;;;1999.90;999.90;;;1.20;93.10;;;;;;4992172;28;20228;-69
2023/11/30 02:01:07;;;;;;;1999.90;999.90;;;1.20;91.20;;;;;;4992127;28;20174;-70
2023/11/30 02:03:33;;;;;;;1999.90;999.90;;;1.20;99.90;;;;;;4992130;28;20177;-69
2023/11/30 02:05:58;;;;;;;1999.90;999.90;;;1.20;72.80;;;;;;4994792;28;20177;-70
2023/11/30 02:08:24;;;;;;;1999.90;999.90;;;1.20;72.40;;;;;;4995739;28;20548;-69
2023/11/30 02:10:49;;;;;;;1999.90;999.90;;;1.30;90.20;;;;;;4995714;28;20240;-69
2023/11/30 02:13:15;;;;;;;1999.90;999.90;;;1.30;72.10;;;;;;4995704;28;20262;-69
2023/11/30 02:15:41;;;;;;;1999.90;999.90;;;1.40;83.50;;;;;;4995516;28;20197;-69
2023/11/30 02:18:06;;;;;;;1999.90;999.90;;;1.40;70.00;;;;;;4995460;28;20224;-69
2023/11/30 02:20:32;;;;;;;1999.90;999.90;;;1.30;44.20;;;;;;4995545;28;20817;-70
2023/11/30 02:22:57;;;;;;;1999.90;999.90;;;1.30;50.80;;;;;;4995509;28;20251;-69
2023/11/30 02:25:23;;;;;;;1999.90;999.90;;;1.30;66.90;;;;;;4995358;28;20185;-69
2023/11/30 02:27:48;;;;;;;1999.90;999.90;;;1.30;87.60;;;;;;4995268;28;20165;-69
2023/11/30 02:30:14;;;;;;;1999.90;999.90;;;1.40;96.10;;;;;;4995362;28;20170;-69
2023/11/30 02:32:39;;;;;;;1999.90;999.90;;;1.40;95.10;;;;;;4995341;28;20157;-69
2023/11/30 02:35:05;;;;;;;1999.90;999.90;;;1.40;99.90;;;;;;4995237;28;20185;-70
2023/11/30 02:37:31;;;;;;;1999.90;999.90;;;1.40;99.90;;;;;;4994922;28;20691;-70
2023/11/30 02:39:56;;;;;;;1999.90;999.90;;;1.50;99.90;;;;;;4995202;28;20427;-69
2023/11/30 02:42:22;;;;;;;1999.90;999.90;;;1.50;99.90;;;;;;4995079;28;20170;-69
2023/11/30 02:44:47;;;;;;;1999.90;999.90;;;1.50;99.90;;;;;;4995092;28;20653;-69
2023/11/30 02:47:13;;;;;;;1999.90;999.90;;;1.50;99.90;;;;;;4994906;28;20165;-69
2023/11/30 02:49:39;;;;;;;1999.90;999.90;;;1.50;99.90;;;;;;4995124;28;20184;-70
2023/11/30 02:52:05;;;;;;;1999.90;999.90;;;1.60;99.90;;;;;;4994987;28;20840;-69
2023/11/30 02:54:31;;;;;;;1999.90;999.90;;;1.60;99.90;;;;;;4994756;28;20216;-70
2023/11/30 02:56:56;;;;;;;1999.90;999.90;;;1.60;99.90;;;;;;4994679;28;20641;-69
2023/11/30 02:59:22;;;;;;;1999.90;999.90;;;1.70;99.90;;;;;;4994878;28;20238;-69
2023/11/30 03:01:49;;;;;;;1999.90;999.90;;;1.60;99.90;;;;;;4994853;28;20162;-70
2023/11/30 03:04:15;;;;;;;1999.90;999.90;;;1.70;99.90;;;;;;4994727;28;20328;-69
2023/11/30 03:06:41;;;;;;;1999.90;999.90;;;1.60;99.90;;;;;;4994481;28;20646;-69
2023/11/30 03:09:08;;;;;;;1999.90;999.90;;;1.70;99.90;;;;;;4994750;28;20185;-70
2023/11/30 03:11:34;;;;;;;1999.90;999.90;;;1.60;96.40;;;;;;4994572;28;20184;-70
2023/11/30 03:14:00;;;;;;;1999.90;999.90;;;1.60;98.50;;;;;;4994582;28;20223;-70
2023/11/30 03:16:27;;;;;;;1999.90;999.90;;;1.60;99.90;;;;;;4994005;28;20205;-69
2023/11/30 03:18:52;;;;;;;1999.90;999.90;;;1.70;99.90;;;;;;4994558;28;20659;-69
2023/11/30 03:21:19;;;;;;;1999.90;999.90;;;1.70;99.90;;;;;;4994480;28;20253;-70
2023/11/30 03:23:45;;;;;;;1999.90;999.90;;;1.70;99.90;;;;;;4994316;28;20417;-70
2023/11/30 03:26:10;;;;;;;1999.90;999.90;;;1.70;81.30;;;;;;4994186;28;20185;-70
2023/11/30 03:28:37;;;;;;;1999.90;999.90;;;1.70;80.60;;;;;;4994552;28;20185;-69
2023/11/30 03:31:02;;;;;;;1999.90;999.90;;;1.70;69.70;;;;;;4994296;28;20173;-69
2023/11/30 03:33:28;;;;;;;1999.90;999.90;;;1.30;99.90;;;;;;4994240;28;20179;-69
2023/11/30 03:35:55;;;;;;;1999.90;999.90;;;1.70;93.20;;;;;;4993896;28;20452;-69
2023/11/30 03:38:21;;;;;;;1999.90;999.90;;;1.80;88.80;;;;;;4994103;28;20186;-70
2023/11/30 03:40:46;;;;;;;1999.90;999.90;;;1.80;94.60;;;;;;4994381;28;20173;-69
2023/11/30 03:43:12;;;;;;;1999.90;999.90;;;1.90;95.60;;;;;;4994098;28;20174;-69
2023/11/30 03:45:37;;;;;;;1999.90;999.90;;;1.90;83.50;;;;;;4993962;28;20221;-69
2023/11/30 03:48:03;;;;;;;1999.90;999.90;;;1.90;84.30;;;;;;4993869;28;20673;-69
2023/11/30 03:50:29;;;;;;;1999.90;999.90;;;1.90;90.30;;;;;;4993950;28;20181;-70
2023/11/30 03:52:54;;;;;;;1999.90;999.90;;;1.90;97.40;;;;;;4993897;28;20177;-69
2023/11/30 03:55:20;;;;;;;1999.90;999.90;;;1.90;94.90;;;;;;4993699;28;20245;-70
2023/11/30 03:57:46;;;;;;;1999.90;999.90;;;1.90;99.70;;;;;;4993648;28;20181;-70
2023/11/30 04:00:13;;;;;;;1999.90;999.90;;;2.00;98.80;;;;;;4993901;28;20173;-69
2023/11/30 04:02:40;;;;;;;1999.90;999.90;;;2.00;93.30;;;;;;4993632;28;20174;-69
2023/11/30 04:05:07;;;;;;;1999.90;999.90;;;1.90;97.90;;;;;;4993657;28;20201;-70
2023/11/30 04:07:33;;;;;;;1999.90;999.90;;;2.00;95.50;;;;;;4993352;28;20181;-69
2023/11/30 04:09:58;;;;;;;1999.90;999.90;;;2.10;99.90;;;;;;4993632;28;20516;-69
2023/11/30 04:12:25;;;;;;;1999.90;999.90;;;2.10;64.20;;;;;;4993586;28;20174;-70
2023/11/30 04:14:53;;;;;;;1999.90;999.90;;;1.90;21.10;;;;;;4993503;28;20200;-70
2023/11/30 04:17:19;;;;;;;1999.90;999.90;;;2.00;18.90;;;;;;4993212;28;20282;-70
2023/11/30 04:19:44;;;;;;;1999.90;999.90;;;1.90;38.90;;;;;;4993345;28;20200;-69
2023/11/30 04:22:10;;;;;;;1999.90;999.90;;;1.90;40.90;;;;;;4993304;28;20221;-69
2023/11/30 04:24:36;;;;;;;1999.90;999.90;;;1.90;55.20;;;;;;4993265;28;20764;-69
2023/11/30 04:27:01;;;;;;;1999.90;999.90;;;1.90;73.90;;;;;;4992485;28;20421;-69
2023/11/30 04:29:28;;;;;;;1999.90;999.90;;;2.00;76.80;;;;;;4993187;28;20209;-69
2023/11/30 04:31:53;;;;;;;1999.90;999.90;;;1.90;81.10;;;;;;4993288;28;20181;-69
2023/11/30 04:34:19;;;;;;;1999.90;999.90;;;2.00;90.70;;;;;;4993038;28;20202;-70
2023/11/30 04:36:45;;;;;;;1999.90;999.90;;;2.00;77.00;;;;;;4992771;28;20200;-69
2023/11/30 04:39:11;;;;;;;1999.90;999.90;;;2.00;91.50;;;;;;4993096;28;20215;-68
2023/11/30 04:41:40;;;;;;;1999.90;999.90;;;1.90;81.50;;;;;;4993077;28;20174;-69
2023/11/30 04:44:06;;;;;;;1999.90;999.90;;;1.90;94.70;;;;;;4992856;28;20194;-69
2023/11/30 04:46:31;;;;;;;1999.90;999.90;;;1.90;87.10;;;;;;4992749;28;20182;-69
2023/11/30 04:48:58;;;;;;;1999.90;999.90;;;1.90;98.40;;;;;;4992919;28;20649;-70
2023/11/30 04:51:24;;;;;;;1999.90;999.90;;;1.90;99.90;;;;;;4992765;28;20252;-70
2023/11/30 04:53:50;;;;;;;1999.90;999.90;;;2.00;99.90;;;;;;4992154;28;20205;-69
2023/11/30 04:56:16;;;;;;;1999.90;999.90;;;2.00;99.90;;;;;;4992511;28;20457;-69
2023/11/30 04:58:42;;;;;;;1999.90;999.90;;;2.00;99.90;;;;;;4992681;28;20460;-69
2023/11/30 05:01:08;;;;;;;1999.90;999.90;;;2.10;99.90;;;;;;4992787;28;20435;-69
2023/11/30 05:03:33;;;;;;;1999.90;999.90;;;1.50;99.90;;;;;;4992556;28;20201;-69
2023/11/30 05:05:59;;;;;;;1999.90;999.90;;;2.10;99.90;;;;;;4992493;28;20173;-70
2023/11/30 05:08:24;;;;;;;1999.90;999.90;;;2.10;99.90;;;;;;4992640;28;20252;-69
2023/11/30 05:10:50;;;;;;;1999.90;999.90;;;2.10;99.90;;;;;;4992691;28;20224;-70
2023/11/30 05:13:16;;;;;;;1999.90;999.90;;;2.10;99.90;;;;;;4992551;28;20182;-69
2023/11/30 05:15:41;;;;;;;1999.90;999.90;;;2.20;99.90;;;;;;4992441;28;20673;-69
2023/11/30 05:18:08;;;;;;;1999.90;999.90;;;2.20;99.90;;;;;;4992325;28;20162;-70
2023/11/30 05:20:33;;;;;;;1999.90;999.90;;;2.30;96.10;;;;;;4992522;28;20173;-69
2023/11/30 05:23:01;;;;;;;1999.90;999.90;;;2.30;94.90;;;;;;4992435;28;20170;-70
2023/11/30 05:25:27;;;;;;;1999.90;999.90;;;2.30;99.40;;;;;;4992462;28;20519;-70
2023/11/30 05:27:53;;;;;;;1999.90;999.90;;;2.30;93.80;;;;;;4992445;28;20220;-70
2023/11/30 05:30:18;;;;;;;1999.90;999.90;;;2.30;61.80;;;;;;4992382;28;20646;-69
2023/11/30 05:32:44;;;;;;;1999.90;999.90;;;2.30;90.50;;;;;;4992505;28;20174;-70
2023/11/30 05:35:10;;;;;;;1999.90;999.90;;;2.30;93.60;;;;;;4992425;28;20200;-70
2023/11/30 05:37:35;;;;;;;1999.90;999.90;;;2.30;92.00;;;;;;4992109;28;20200;-70
2023/11/30 05:40:01;;;;;;;1999.90;999.90;;;2.30;93.90;;;;;;4995682;28;20599;-69
2023/11/30 05:42:27;;;;;;;1999.90;999.90;;;2.30;82.90;;;;;;4996276;28;20188;-70
2023/11/30 05:44:53;;;;;;;1999.90;999.90;;;2.20;75.30;;;;;;4996267;28;20181;-70
2023/11/30 05:47:21;;;;;;;1999.90;999.90;;;2.20;94.10;;;;;;4996003;28;20189;-70
2023/11/30 05:49:46;;;;;;;1999.90;999.90;;;2.20;97.90;;;;;;4996205;28;20200;-69
2023/11/30 05:52:13;;;;;;;1999.90;999.90;;;2.20;85.80;;;;;;4996022;28;20174;-69
2023/11/30 05:54:38;;;;;;;1999.90;999.90;;;2.20;79.90;;;;;;4995923;28;20224;-69
2023/11/30 05:57:04;;;;;;;1999.90;999.90;;;2.20;80.40;;;;;;4994881;28;20561;-70
2023/11/30 05:59:30;;;;;;;1999.90;999.90;;;2.20;78.70;;;;;;4995952;28;20232;-70
2023/11/30 06:01:55;;;;;;;1999.90;999.90;;;2.20;99.20;;;;;;4995762;28;20248;-70
2023/11/30 06:04:21;;;;;;;1999.90;999.90;;;2.20;99.90;;;;;;4995679;28;20716;-70
2023/11/30 06:06:46;;;;;;;1999.90;999.90;;;2.20;99.90;;;;;;4995537;28;20269;-70
2023/11/30 06:09:14;;;;;;;1999.90;999.90;;;2.10;99.90;;;;;;4995770;28;20173;-70
2023/11/30 06:11:40;;;;;;;1999.90;999.90;;;2.10;99.90;;;;;;4995492;28;20174;-69
2023/11/30 06:14:06;;;;;;;1999.90;999.90;;;2.20;99.90;;;;;;4995553;28;20216;-70
2023/11/30 06:16:31;;;;;;;1999.90;999.90;;;2.20;99.90;;;;;;4995446;28;20248;-70
2023/11/30 06:18:57;;;;;;;1999.90;999.90;;;2.20;99.90;;;;;;4995728;28;20177;-70
2023/11/30 06:21:22;;;;;;;1999.90;999.90;;;2.20;99.90;;;;;;4995581;28;20170;-70
2023/11/30 06:23:48;;;;;;;1999.90;999.90;;;2.20;99.90;;;;;;4995463;28;20186;-70
2023/11/30 06:26:13;;;;;;;1999.90;999.90;;;2.20;99.90;;;;;;4995357;28;20194;-69
2023/11/30 06:28:40;;;;;;;1999.90;999.90;;;2.30;99.90;;;;;;4995519;28;20172;-69
2023/11/30 06:31:07;;;;;;;1999.90;999.90;;;2.30;99.90;;;;;;4995429;28;20652;-70
2023/11/30 06:33:32;;;;;;;1999.90;999.90;;;2.20;99.90;;;;;;4995297;28;20268;-70
2023/11/30 06:35:58;;;;;;;1999.90;999.90;;;2.30;99.90;;;;;;4995011;28;20321;-70
2023/11/30 06:38:23;;;;;;;1999.90;999.90;;;2.30;99.90;;;;;;4995308;28;20189;-70
2023/11/30 06:40:49;;;;;;;1999.90;999.90;;;2.30;99.90;;;;;;4995181;28;20166;-70
2023/11/30 06:43:15;;;;;;;1999.90;999.90;;;2.20;99.90;;;;;;4995163;28;20177;-69
2023/11/30 06:45:40;;;;;;;1999.90;999.90;;;2.30;99.90;;;;;;4995074;28;20189;-70
2023/11/30 06:48:06;;;;;;;1999.90;999.90;;;2.40;99.90;;;;;;4994956;28;20169;-70
2023/11/30 06:50:31;;;;;;;1999.90;999.90;;;2.40;99.90;;;;;;4994389;28;20193;-70
2023/11/30 06:52:57;;;;;;;1999.90;999.90;;;2.40;99.90;;;;;;4994993;28;20705;-69
2023/11/30 06:55:22;;;;;;;1999.90;999.90;;;2.40;99.90;;;;;;4994829;28;20231;-70
2023/11/30 06:57:48;;;;;;;1999.90;999.90;;;2.40;99.90;;;;;;4994944;28;20166;-69
2023/11/30 07:00:14;;;;;;;1999.90;999.90;;;2.40;99.90;;;;;;4994981;28;20629;-69
2023/11/30 07:02:40;;;;;;;1999.90;999.90;;;2.40;99.90;;;;;;4993595;28;20236;-70
2023/11/30 07:05:06;;;;;;;1999.90;999.90;;;2.40;99.90;;;;;;4994751;28;20193;-69
2023/11/30 07:07:32;;;;;;;1999.90;999.90;;;2.30;99.90;;;;;;4994802;28;20184;-68
2023/11/30 07:09:59;;;;;;;1999.90;999.90;;;2.30;99.90;;;;;;4994708;28;20474;-70
2023/11/30 07:12:24;;;;;;;1999.90;999.90;;;2.30;99.90;;;;;;4994841;28;20585;-70
2023/11/30 07:14:50;;;;;;;1999.90;999.90;;;2.30;99.90;;;;;;4993582;28;20209;-70
2023/11/30 07:17:15;;;;;;;1999.90;999.90;;;2.40;99.90;;;;;;4994298;28;20665;-70
2023/11/30 07:19:41;;;;;;;1999.90;999.90;;;2.30;99.90;;;;;;4994447;28;20887;-69
2023/11/30 07:22:07;;;;;;;1999.90;999.90;;;2.30;99.90;;;;;;4994444;28;20514;-69
2023/11/30 07:24:35;;;;;;;1999.90;999.90;;;2.20;99.90;;;;;;4994584;28;20245;-70
2023/11/30 07:27:00;;;;;;;1999.90;999.90;;;2.20;99.90;;;;;;4994178;28;20224;-69
2023/11/30 07:29:26;;;;;;;1999.90;999.90;;;2.10;99.90;;;;;;4994483;28;20177;-68
2023/11/30 07:31:52;;;;;;;1999.90;999.90;;;2.20;99.90;;;;;;4994237;28;20173;-70
2023/11/30 07:34:18;;;;;;;1999.90;999.90;;;2.00;99.90;;;;;;4994204;28;20636;-70
2023/11/30 07:36:44;;;;;;;1999.90;999.90;;;1.90;99.90;;;;;;4994157;28;20762;-70
2023/11/30 07:39:09;;;;;;;1999.90;999.90;;;1.90;99.90;;;;;;4994636;28;20177;-69
2023/11/30 07:41:35;;;;;;;1999.90;999.90;;;1.90;99.90;;;;;;4994331;28;20172;-70
2023/11/30 07:44:02;;;;;;;1999.90;999.90;;;2.00;99.90;;;;;;4994133;28;20193;-71
2023/11/30 07:46:28;;;;;;;1999.90;999.90;;;2.10;99.90;;;;;;4992820;28;20179;-69
2023/11/30 07:48:54;;;;;;;1999.90;999.90;;;2.10;99.90;;;;;;4993950;28;20649;-70
2023/11/30 07:51:21;;;;;;;1999.90;999.90;;;2.20;99.90;;;;;;4993416;28;20413;-69
2023/11/30 07:53:47;;;;;;;1999.90;999.90;;;2.20;99.90;;;;;;4993946;28;20249;-70
2023/11/30 07:56:13;;;;;;;1999.90;999.90;;;2.20;99.90;;;;;;4993717;28;20194;-69
2023/11/30 07:58:40;;;;;;;1999.90;999.90;;;2.30;99.90;;;;;;4993997;28;20224;-70
2023/11/30 08:01:06;;;;;;;1999.90;999.90;;;2.30;99.90;;;;;;4994025;28;20173;-70
2023/11/30 08:03:32;;;;;;;1999.90;999.90;;;2.50;99.90;;;;;;4993074;28;20200;-70
2023/11/30 08:05:58;;;;;;;1999.90;999.90;;;2.40;99.90;;;;;;4993743;28;20416;-69
2023/11/30 08:08:23;;;;;;;1999.90;999.90;;;2.50;99.90;;;;;;4994068;28;20256;-70
2023/11/30 08:10:49;;;;;;;1999.90;999.90;;;2.60;99.90;;;;;;4993515;28;20409;-69
2023/11/30 08:13:16;;;;;;;1999.90;999.90;;;2.60;99.90;;;;;;4993693;28;20182;-70
2023/11/30 08:15:42;;;;;;;1999.90;999.90;;;2.70;99.90;;;;;;4993419;28;20201;-69
2023/11/30 08:18:08;;;;;;;1999.90;999.90;;;2.70;99.90;;;;;;4993310;28;20248;-69
2023/11/30 08:20:35;;;;;;;1999.90;999.90;;;2.70;99.90;;;;;;4993594;28;20783;-70
2023/11/30 08:23:02;;;;;;;1999.90;999.90;;;2.80;99.90;;;;;;4993397;28;20256;-70
2023/11/30 08:25:28;;;;;;;1999.90;999.90;;;2.80;99.90;;;;;;4993274;28;20237;-69
2023/11/30 08:27:53;;;;;;;1999.90;999.90;;;2.90;99.90;;;;;;4993263;28;20174;-69
2023/11/30 08:30:19;;;;;;;1999.90;999.90;;;2.80;99.90;;;;;;4993249;28;20488;-69
2023/11/30 08:32:45;;;;;;;1999.90;999.90;;;2.90;99.90;;;;;;4993256;28;20724;-70
2023/11/30 08:35:11;;;;;;;1999.90;999.90;;;2.90;99.90;;;;;;4993412;28;20566;-69
2023/11/30 08:37:37;;;;;;;1999.90;999.90;;;2.90;99.90;;;;;;4993020;28;20336;-70
2023/11/30 08:40:04;;;;;;;1999.90;999.90;;;2.90;99.90;;;;;;4993181;28;20221;-70
2023/11/30 08:42:30;;;;;;;1999.90;999.90;;;2.90;99.90;;;;;;4993109;28;20196;-69
2023/11/30 08:44:55;;;;;;;1999.90;999.90;;;3.00;99.90;;;;;;4992994;28;20197;-68
2023/11/30 08:47:24;;;;;;;1999.90;999.90;;;3.00;99.90;;;;;;4992828;28;20196;-70
2023/11/30 08:49:49;;;;;;;1999.90;999.90;;;3.00;99.90;;;;;;4992908;28;20248;-69
2023/11/30 08:52:15;;;;;;;1999.90;999.90;;;2.90;99.90;;;;;;4992897;28;20265;-70
2023/11/30 08:54:41;;;;;;;1999.90;999.90;;;2.80;99.90;;;;;;4992731;28;20267;-69
2023/11/30 08:57:07;;;;;;;1999.90;999.90;;;2.60;99.90;;;;;;4992504;28;20202;-69
2023/11/30 08:59:33;;;;;;;1999.90;999.90;;;2.60;99.90;;;;;;4990823;28;20181;-70
2023/11/30 09:01:59;;;;;;;1999.90;999.90;;;2.70;99.90;;;;;;4988209;28;20243;-70
2023/11/30 09:04:24;;;;;;;1999.90;999.90;;;2.70;99.90;;;;;;4987928;28;20194;-70
2023/11/30 09:06:50;;;;;;;1999.90;999.90;;;2.70;99.90;;;;;;4988812;28;20182;-69
2023/11/30 09:09:15;;;;;;;1999.90;999.90;;;2.80;99.90;;;;;;4987999;28;20178;-69
2023/11/30 09:11:44;;;;;;;1999.90;999.90;;;2.90;99.90;;;;;;4988571;28;20719;-69
2023/11/30 09:14:10;;;;;;;1999.90;999.90;;;3.00;99.90;;;;;;4988322;28;20194;-68
2023/11/30 09:16:36;;;;;;;1999.90;999.90;;;3.00;99.90;;;;;;4987815;28;20471;-69
2023/11/30 09:19:05;;;;;;;1999.90;999.90;;;3.10;99.90;;;;;;4988009;28;20188;-68
2023/11/30 09:21:31;;;;;;;1999.90;999.90;;;3.20;99.90;;;;;;4988642;28;20181;-68
2023/11/30 09:23:58;;;;;;;1999.90;999.90;;;3.30;99.90;;;;;;4987848;28;20440;-69
2023/11/30 09:26:24;;;;;;;1999.90;999.90;;;3.30;99.90;;;;;;4987685;28;20173;-69
2023/11/30 09:28:49;;;;;;;1999.90;999.90;;;3.30;99.90;;;;;;4988514;28;20189;-69
2023/11/30 09:31:15;;;;;;;1999.90;999.90;;;3.40;99.90;;;;;;4988023;28;20187;-69
2023/11/30 09:33:41;;;;;;;1999.90;999.90;;;3.20;99.90;;;;;;4987838;28;20178;-68
2023/11/30 09:36:07;;;;;;;1999.90;999.90;;;3.60;99.90;;;;;;4988253;28;20209;-70
2023/11/30 09:38:33;;;;;;;1999.90;999.90;;;3.60;99.90;;;;;;4988039;28;20409;-70
2023/11/30 09:41:05;;;;;;;1999.90;999.90;;;3.70;99.90;;;;;;4988067;28;20832;-68
2023/11/30 09:43:31;;;;;;;1999.90;999.90;;;3.70;99.90;;;;;;4988401;28;20609;-70
2023/11/30 09:45:57;;;;;;;1999.90;999.90;;;3.90;99.90;;;;;;4987902;28;20440;-70
2023/11/30 09:48:23;;;;;;;1999.90;999.90;;;3.90;99.90;;;;;;4986758;28;20503;-67
2023/11/30 09:50:48;;;;;;;1999.90;999.90;;;3.70;99.90;;;;;;4990414;28;20192;-68
2023/11/30 09:53:14;;;;;;;1999.90;999.90;;;3.70;99.90;;;;;;4991438;28;20181;-69
2023/11/30 09:55:40;;;;;;;1999.90;999.90;;;3.70;99.90;;;;;;4991617;28;20221;-68
2023/11/30 09:58:05;;;;;;;1999.90;999.90;;;3.70;99.90;;;;;;4991260;28;20220;-68
2023/11/30 10:00:31;;;;;;;1999.90;999.90;;;3.70;99.90;;;;;;4991679;28;20177;-69
2023/11/30 10:02:59;;;;;;;1999.90;999.90;;;3.70;99.90;;;;;;4991716;28;20181;-69
2023/11/30 10:05:26;;;;;;;1999.90;999.90;;;3.80;99.90;;;;;;4991962;28;20709;-70
2023/11/30 10:07:52;;;;;;;1999.90;999.90;;;3.90;99.90;;;;;;4991321;28;20420;-70
2023/11/30 10:10:18;;;;;;;1999.90;999.90;;;;;;;;;;4990485;28;20423;-68
2023/11/30 10:12:44;;;;;;;1999.90;999.90;;;4.00;99.90;;;;;;4991538;28;20264;-70
2023/11/30 10:15:09;;;;;;;1999.90;999.90;;;4.10;99.90;;;;;;4991565;28;20444;-69
2023/11/30 10:17:36;;;;;;;1999.90;999.90;;;4.20;99.90;;;;;;4993079;28;20209;-68
2023/11/30 10:20:05;;;;;;;1999.90;999.90;;;4.30;99.90;;;;;;4996101;28;20264;-70
2023/11/30 10:22:31;;;;;;;1999.90;999.90;;;4.40;99.90;;;;;;4993273;28;20408;-67
2023/11/30 10:24:57;;;;;;;1999.90;999.90;;;4.40;99.90;;;;;;4991322;28;20508;-68
2023/11/30 10:27:24;;;;;;;1999.90;999.90;;;4.50;99.90;;;;;;4994439;28;20510;-68
2023/11/30 10:29:54;;;;;;;1999.90;999.90;;;4.50;99.90;;;;;;4994432;28;20196;-68
2023/11/30 10:32:22;;;;;;;1999.90;999.90;;;4.60;89.80;;;;;;4994630;28;20475;-68
2023/11/30 10:34:48;;;;;;;1999.90;999.90;;;4.60;55.50;;;;;;4994555;28;20459;-68
2023/11/30 10:37:19;;;;;;;1999.90;999.90;;;4.60;27.70;;;;;;4993878;28;20463;-69
2023/11/30 10:39:51;;;;;;;1999.90;999.90;;;4.60;3.50;;;;;;4994659;28;20424;-70
2023/11/30 10:42:18;;;;;;;1999.90;999.90;;;4.60;1.00;;;;;;4994629;28;20507;-68
2023/11/30 10:44:49;;;;;;;1999.90;999.90;;;4.60;1.00;;;;;;4994661;28;20441;-67
2023/11/30 10:47:16;;;;;;;1999.90;999.90;;;4.70;1.00;;;;;;4995306;28;20455;-69
2023/11/30 10:49:43;;;;;;;1999.90;999.90;;;4.70;1.00;;;;;;4993341;28;20844;-69
2023/11/30 10:52:10;;;;;;;1999.90;999.90;;;4.70;1.00;;;;;;4993054;28;20455;-69
2023/11/30 10:54:44;;;;;;;1999.90;999.90;;;4.70;1.00;;;;;;4994675;28;20515;-69
2023/11/30 10:57:10;;;;;;;1999.90;999.90;;;4.80;1.00;;;;;;4994254;28;20464;-68
2023/11/30 10:59:41;;;;;;;1999.90;999.90;;;4.80;1.00;;;;;;4994623;28;20413;-68
2023/11/30 11:02:09;;;;;;;1999.90;999.90;;;4.80;1.00;;;;;;4994270;28;20416;-69
2023/11/30 11:04:43;;;;;;;1999.90;999.90;;;4.90;1.00;;;;;;4994176;28;20495;-67
2023/11/30 11:07:11;;;;;;;1999.90;999.90;;;4.90;1.00;;;;;;4993910;28;20795;-71
2023/11/30 11:09:50;;;;;;;1999.90;999.90;;;5.60;1.00;;;;;;4994126;28;20413;-71
2023/11/30 11:12:24;;;;;;;1999.90;999.90;;;5.10;1.00;;;;;;4994095;28;20482;-71
2023/11/30 11:14:51;;;;;;;1999.90;999.90;;;5.10;1.00;;;;;;4994095;28;20460;-69
2023/11/30 11:17:20;;;;;;;1999.90;999.90;;;5.20;1.00;;;;;;4993525;28;20511;-68
2023/11/30 11:19:46;;;;;;;1999.90;999.90;;;5.20;1.00;;;;;;4994224;28;20982;-68
2023/11/30 11:22:15;;;;;;;1999.90;999.90;;;5.20;1.00;;;;;;4994040;28;20417;-69
2023/11/30 11:24:41;;;;;;;1999.90;999.90;;;5.30;1.00;;;;;;4994085;28;20638;-69
2023/11/30 11:27:06;;;;;;;1999.90;999.90;;;5.40;1.00;;;;;;4993623;28;20421;-69
2023/11/30 11:29:33;;;;;;;1999.90;999.90;;;5.30;99.90;;;;;;4994161;28;20182;-70
2023/11/30 11:32:00;;;;;;;1999.90;999.90;;;5.20;99.90;;;;;;4993626;28;20192;-70
2023/11/30 11:34:26;;;;;;;1999.90;999.90;;;5.20;99.90;;;;;;4993465;28;20531;-70
2023/11/30 11:36:51;;;;;;;1999.90;999.90;;;5.20;99.90;;;;;;4993264;28;20603;-71
2023/11/30 11:39:17;;;;;;;1999.90;999.90;;;5.20;99.90;;;;;;4993553;28;20185;-70
2023/11/30 11:41:46;;;;;;;1999.90;999.90;;;5.30;99.90;;;;;;4993378;28;20173;-69
2023/11/30 11:44:13;;;;;;;1999.90;999.90;;;5.30;99.90;;;;;;4993198;28;20277;-71
2023/11/30 11:46:39;;;;;;;1999.90;999.90;;;5.30;99.90;;;;;;4993245;28;20436;-70
2023/11/30 11:49:04;;;;;;;1999.90;999.90;;;5.30;40.60;;;;;;4993213;28;20420;-71
2023/11/30 11:51:41;;;;;;;1999.90;999.90;;;5.20;1.00;;;;;;4993432;28;20185;-70
2023/11/30 11:54:15;;;;;;;1999.90;999.90;;;5.30;1.00;;;;;;4992785;28;20213;-69
2023/11/30 11:56:47;;;;;;;1999.90;999.90;;;5.30;32.60;;;;;;4991812;28;20965;-71
2023/11/30 11:59:27;;;;;;;1999.90;999.90;;;5.40;99.90;;;;;;4992007;28;20412;-70
2023/11/30 12:01:54;;;;;;;1999.90;999.90;;;5.40;53.00;;;;;;4992754;28;20417;-71
2023/11/30 12:04:27;;;;;;;1999.90;999.90;;;5.50;85.70;;;;;;4992746;28;20428;-71